createdAt,value
2022-12-04T00:02:00.695Z,-0.02
2022-12-04T00:04:28.975Z,-0.04
2022-12-04T00:06:59.017Z,-0.01
2022-12-04T00:09:27.687Z,-0.01
2022-12-04T00:11:55.937Z,0.02
2022-12-04T00:14:24.199Z,0.04
2022-12-04T00:16:53.043Z,0.00
2022-12-04T00:19:22.779Z,-0.04
2022-12-04T00:21:51.599Z,-0.03
2022-12-04T00:24:20.067Z,-0.05
2022-12-04T00:26:48.652Z,-0.06
2022-12-04T00:29:17.435Z,-0.03
2022-12-04T00:31:46.282Z,-0.08
2022-12-04T00:34:14.678Z,-0.05
2022-12-04T00:36:44.783Z,-0.04
2022-12-04T00:39:13.115Z,-0.06
2022-12-04T00:41:41.562Z,-0.10
2022-12-04T00:44:09.844Z,-0.05
2022-12-04T00:46:38.102Z,-0.05
2022-12-04T00:49:06.405Z,-0.11
2022-12-04T00:51:34.673Z,-0.10
2022-12-04T00:54:04.601Z,-0.13
2022-12-04T00:56:33.162Z,-0.11
2022-12-04T00:59:02.332Z,-0.08
2022-12-04T01:01:32.039Z,-0.10
2022-12-04T01:04:00.585Z,-0.03
2022-12-04T01:06:32.923Z,0.00
2022-12-04T01:09:06.559Z,-0.04
2022-12-04T01:11:35.321Z,-0.06
2022-12-04T01:14:03.925Z,-0.08
2022-12-04T01:16:35.647Z,-0.06
2022-12-04T01:19:05.486Z,-0.01
2022-12-04T01:21:34.062Z,0.02
2022-12-04T01:24:04.015Z,-0.01
2022-12-04T01:26:32.389Z,-0.01
2022-12-04T01:29:00.697Z,0.02
2022-12-04T01:31:29.136Z,0.00
2022-12-04T01:33:57.680Z,-0.02
2022-12-04T01:36:29.215Z,0.03
2022-12-04T01:38:58.315Z,-0.05
2022-12-04T01:41:32.274Z,-0.03
2022-12-04T01:44:17.603Z,-0.01
2022-12-04T01:46:48.308Z,-0.02
2022-12-04T01:49:22.867Z,0.07
2022-12-04T01:52:00.100Z,0.05
2022-12-04T01:54:33.447Z,0.07
2022-12-04T01:57:08.270Z,0.04
2022-12-04T01:59:42.643Z,0.08
2022-12-04T02:02:15.780Z,0.08
2022-12-04T02:04:45.338Z,0.06
2022-12-04T02:07:13.826Z,0.01
2022-12-04T02:09:45.525Z,0.10
2022-12-04T02:12:24.975Z,0.04
2022-12-04T02:15:09.355Z,0.05
2022-12-04T02:17:49.018Z,0.05
2022-12-04T02:20:34.567Z,0.11
2022-12-04T02:23:44.753Z,0.07
2022-12-04T02:26:34.514Z,0.11
2022-12-04T02:29:13.118Z,0.11
2022-12-04T02:31:52.551Z,0.11
2022-12-04T02:34:29.588Z,0.12
2022-12-04T02:37:03.972Z,0.10
2022-12-04T02:39:39.235Z,0.12
2022-12-04T02:42:15.674Z,0.15
2022-12-04T02:44:51.439Z,0.12
2022-12-04T02:47:24.393Z,0.13
2022-12-04T02:49:59.560Z,0.14
2022-12-04T02:52:34.793Z,0.20
2022-12-04T02:55:09.298Z,0.21
2022-12-04T02:57:44.222Z,0.20
2022-12-04T03:00:16.192Z,0.13
2022-12-04T03:02:54.421Z,0.13
2022-12-04T03:05:31.350Z,0.15
2022-12-04T03:08:04.803Z,0.17
2022-12-04T03:10:40.174Z,0.11
2022-12-04T03:13:14.713Z,0.09
2022-12-04T03:15:52.014Z,0.10
2022-12-04T03:18:44.776Z,0.14
2022-12-04T03:21:20.570Z,0.14
2022-12-04T03:23:56.129Z,0.09
2022-12-04T03:26:30.461Z,0.10
2022-12-04T03:29:09.098Z,0.11
2022-12-04T03:31:46.334Z,0.13
2022-12-04T03:34:23.614Z,0.11
2022-12-04T03:36:59.149Z,0.11
2022-12-04T03:39:36.943Z,0.17
2022-12-04T03:42:15.021Z,0.15
2022-12-04T03:44:50.241Z,0.16
2022-12-04T03:47:30.357Z,0.15
2022-12-04T03:50:09.023Z,0.15
2022-12-04T03:52:49.667Z,0.18
2022-12-04T03:55:27.640Z,0.17
2022-12-04T03:58:05.866Z,0.18
2022-12-04T04:00:38.747Z,0.22
2022-12-04T04:03:15.314Z,0.23
2022-12-04T04:05:49.137Z,0.24
2022-12-04T04:08:27.296Z,0.30
2022-12-04T04:11:03.598Z,0.30
2022-12-04T04:13:57.190Z,0.31
2022-12-04T04:16:47.809Z,0.28
2022-12-04T04:19:38.678Z,0.30
2022-12-04T04:22:29.312Z,0.32
2022-12-04T04:25:05.269Z,0.30
2022-12-04T04:27:33.567Z,0.35
2022-12-04T04:30:02.595Z,0.34
2022-12-04T04:32:41.868Z,0.31
2022-12-04T04:35:22.043Z,0.32
2022-12-04T04:38:02.339Z,0.34
2022-12-04T04:40:42.044Z,0.29
2022-12-04T04:43:18.538Z,0.25
2022-12-04T04:45:51.395Z,0.24
2022-12-04T04:48:28.832Z,0.20
2022-12-04T04:51:01.188Z,0.24
2022-12-04T04:53:37.707Z,0.27
2022-12-04T04:56:08.377Z,0.30
2022-12-04T04:58:36.819Z,0.27
2022-12-04T05:01:10.486Z,0.27
2022-12-04T05:03:39.481Z,0.26
2022-12-04T05:06:09.817Z,0.27
2022-12-04T05:08:38.927Z,0.28
2022-12-04T05:11:08.049Z,0.28
2022-12-04T05:13:36.363Z,0.29
2022-12-04T05:16:08.501Z,0.30
2022-12-04T05:18:37.471Z,0.36
2022-12-04T05:21:09.555Z,0.32
2022-12-04T05:23:37.848Z,0.23
2022-12-04T05:26:07.151Z,0.23
2022-12-04T05:28:35.477Z,0.27
2022-12-04T05:31:05.703Z,0.34
2022-12-04T05:33:34.286Z,0.36
2022-12-04T05:36:05.936Z,0.35
2022-12-04T05:38:36.022Z,0.38
2022-12-04T05:41:07.022Z,0.38
2022-12-04T05:43:36.457Z,0.36
2022-12-04T05:46:06.675Z,0.43
2022-12-04T05:48:36.257Z,0.43
2022-12-04T05:51:07.999Z,0.36
2022-12-04T05:53:38.365Z,0.41
2022-12-04T05:56:08.672Z,0.38
2022-12-04T05:58:38.178Z,0.40
2022-12-04T06:01:14.320Z,0.38
2022-12-04T06:03:42.879Z,0.34
2022-12-04T06:06:21.436Z,0.27
2022-12-04T06:08:54.424Z,0.25
2022-12-04T06:11:26.024Z,0.27
2022-12-04T06:13:54.755Z,0.30
2022-12-04T06:16:25.435Z,0.33
2022-12-04T06:18:57.396Z,0.33
2022-12-04T06:21:29.448Z,0.40
2022-12-04T06:23:59.918Z,0.40
2022-12-04T06:26:28.309Z,0.41
2022-12-04T06:28:58.359Z,0.40
2022-12-04T06:31:30.400Z,0.34
2022-12-04T06:33:59.549Z,0.36
2022-12-04T06:36:28.343Z,0.30
2022-12-04T06:38:59.403Z,0.30
2022-12-04T06:41:29.230Z,0.38
2022-12-04T06:43:58.706Z,0.42
2022-12-04T06:46:30.403Z,0.36
2022-12-04T06:49:01.261Z,0.34
2022-12-04T06:51:34.894Z,0.36
2022-12-04T06:54:05.465Z,0.33
2022-12-04T06:56:35.610Z,0.35
2022-12-04T06:59:06.334Z,0.34
2022-12-04T07:01:36.298Z,0.29
2022-12-04T07:04:05.883Z,0.33
2022-12-04T07:06:36.579Z,0.39
2022-12-04T07:09:09.847Z,0.32
2022-12-04T07:11:39.976Z,0.37
2022-12-04T07:14:09.167Z,0.35
2022-12-04T07:16:41.246Z,0.35
2022-12-04T07:19:11.223Z,0.40
2022-12-04T07:21:39.850Z,0.40
2022-12-04T07:24:15.758Z,0.45
2022-12-04T07:26:44.519Z,0.46
2022-12-04T07:29:15.225Z,0.43
2022-12-04T07:31:44.688Z,0.42
2022-12-04T07:34:13.185Z,0.50
2022-12-04T07:36:43.991Z,0.54
2022-12-04T07:39:16.831Z,0.50
2022-12-04T07:41:47.238Z,0.52
2022-12-04T07:44:16.372Z,0.58
2022-12-04T07:46:44.802Z,0.68
2022-12-04T07:49:14.015Z,0.78
2022-12-04T07:51:42.435Z,0.86
2022-12-04T07:54:10.755Z,0.84
2022-12-04T07:56:40.523Z,0.79
2022-12-04T07:59:10.587Z,0.87
2022-12-04T08:01:39.206Z,0.95
2022-12-04T08:04:07.659Z,0.98
2022-12-04T08:06:36.245Z,1.06
2022-12-04T08:09:09.873Z,1.04
2022-12-04T08:11:40.269Z,1.08
2022-12-04T08:14:09.779Z,1.13
2022-12-04T08:16:38.344Z,1.14
2022-12-04T08:19:07.646Z,1.07
2022-12-04T08:21:36.154Z,1.10
2022-12-04T08:24:04.839Z,1.08
2022-12-04T08:26:34.302Z,1.07
2022-12-04T08:29:06.746Z,1.05
2022-12-04T08:31:37.345Z,1.13
2022-12-04T08:34:08.635Z,1.19
2022-12-04T08:36:37.022Z,1.30
2022-12-04T08:39:06.154Z,1.30
2022-12-04T08:41:34.537Z,1.41
2022-12-04T08:44:04.295Z,1.41
2022-12-04T08:46:33.035Z,1.40
2022-12-04T08:49:01.444Z,1.53
2022-12-04T08:51:34.527Z,1.60
2022-12-04T08:54:05.715Z,1.58
2022-12-04T08:56:36.071Z,1.60
2022-12-04T08:59:06.942Z,1.57
2022-12-04T09:01:35.305Z,1.65
2022-12-04T09:04:04.032Z,1.60
2022-12-04T09:06:32.492Z,1.68
2022-12-04T09:09:01.494Z,1.81
2022-12-04T09:11:32.389Z,1.85
2022-12-04T09:14:02.970Z,1.95
2022-12-04T09:16:34.587Z,1.99
2022-12-04T09:19:05.708Z,2.04
2022-12-04T09:21:34.140Z,1.97
2022-12-04T09:24:02.770Z,1.95
2022-12-04T09:26:33.720Z,2.06
2022-12-04T09:29:04.830Z,2.12
2022-12-04T09:31:36.660Z,2.18
2022-12-04T09:34:05.586Z,2.20
2022-12-04T09:36:34.192Z,2.25
2022-12-04T09:39:02.591Z,2.15
2022-12-04T09:41:55.302Z,2.19
2022-12-04T09:44:30.631Z,2.19
2022-12-04T09:47:06.080Z,2.34
2022-12-04T09:49:43.169Z,2.30
2022-12-04T09:52:27.436Z,2.34
2022-12-04T09:54:58.134Z,2.28
2022-12-04T09:57:39.374Z,2.26
2022-12-04T10:00:14.495Z,2.18
2022-12-04T10:02:51.365Z,2.21
2022-12-04T10:05:26.384Z,2.15
2022-12-04T10:08:07.684Z,2.12
2022-12-04T10:10:43.537Z,2.20
2022-12-04T10:13:45.214Z,2.24
2022-12-04T10:16:25.600Z,2.28
2022-12-04T10:19:09.332Z,2.35
2022-12-04T10:21:52.695Z,2.43
2022-12-04T10:24:39.236Z,2.67
2022-12-04T10:27:15.823Z,2.73
2022-12-04T10:29:50.147Z,2.81
2022-12-04T10:32:24.389Z,2.85
2022-12-04T10:34:59.476Z,3.04
2022-12-04T10:37:29.369Z,3.06
2022-12-04T10:40:09.130Z,3.02
2022-12-04T10:42:47.233Z,2.99
2022-12-04T10:45:16.381Z,3.00
2022-12-04T10:47:50.818Z,2.98
2022-12-04T10:50:24.120Z,3.05
2022-12-04T10:52:52.779Z,2.99
2022-12-04T10:55:32.917Z,3.00
2022-12-04T10:58:02.756Z,2.93
2022-12-04T11:00:34.537Z,3.05
2022-12-04T11:03:11.524Z,3.10
2022-12-04T11:05:55.343Z,3.14
2022-12-04T11:08:29.142Z,3.24
2022-12-04T11:11:03.007Z,3.26
2022-12-04T11:13:31.465Z,3.27
2022-12-04T11:16:04.684Z,3.28
2022-12-04T11:18:38.533Z,3.37
2022-12-04T11:21:18.245Z,3.42
2022-12-04T11:23:49.876Z,3.36
2022-12-04T11:26:31.673Z,3.42
2022-12-04T11:29:03.292Z,3.36
2022-12-04T11:31:33.118Z,3.23
2022-12-04T11:34:06.595Z,3.23
2022-12-04T11:36:41.908Z,3.32
2022-12-04T11:39:20.102Z,3.46
2022-12-04T11:41:49.792Z,3.56
2022-12-04T11:44:27.706Z,3.51
2022-12-04T11:46:59.360Z,3.61
2022-12-04T11:49:28.795Z,3.72
2022-12-04T11:52:18.125Z,3.75
2022-12-04T11:55:01.489Z,3.96
2022-12-04T11:57:44.356Z,4.07
2022-12-04T12:00:17.087Z,4.07
2022-12-04T12:03:07.637Z,4.09
2022-12-04T12:06:12.660Z,4.08
2022-12-04T12:09:12.785Z,4.13
2022-12-04T12:11:50.827Z,4.15
2022-12-04T12:14:30.399Z,4.12
2022-12-04T12:17:12.618Z,3.98
2022-12-04T12:20:14.465Z,3.83
2022-12-04T12:23:03.905Z,3.85
2022-12-04T12:25:51.771Z,3.94
2022-12-04T12:28:42.881Z,3.90
2022-12-04T12:31:53.647Z,4.06
2022-12-04T12:34:35.473Z,4.12
2022-12-04T12:37:15.408Z,4.09
2022-12-04T12:39:53.143Z,4.01
2022-12-04T12:42:32.068Z,3.86
2022-12-04T12:45:07.464Z,3.94
2022-12-04T12:47:43.863Z,4.04
2022-12-04T12:50:18.623Z,4.01
2022-12-04T12:52:56.973Z,3.95
2022-12-04T12:55:31.650Z,3.87
2022-12-04T12:58:14.339Z,3.90
2022-12-04T13:00:50.133Z,3.95
2022-12-04T13:03:32.973Z,4.10
2022-12-04T13:06:10.617Z,4.18
2022-12-04T13:08:49.312Z,4.13
2022-12-04T13:11:20.895Z,4.13
2022-12-04T13:13:55.205Z,4.15
2022-12-04T13:16:29.426Z,3.98
2022-12-04T13:19:10.667Z,4.09
2022-12-04T13:21:47.403Z,4.17
2022-12-04T13:24:57.700Z,4.13
2022-12-04T13:27:46.341Z,4.14
2022-12-04T13:30:21.590Z,4.09
2022-12-04T13:33:23.666Z,4.13
2022-12-04T13:36:36.744Z,4.05
2022-12-04T13:39:36.389Z,3.89
2022-12-04T13:42:07.784Z,3.90
2022-12-04T13:44:37.351Z,3.89
2022-12-04T13:47:09.681Z,3.89
2022-12-04T13:49:42.170Z,3.85
2022-12-04T13:52:25.131Z,3.82
2022-12-04T13:54:59.532Z,3.81
2022-12-04T13:57:29.875Z,3.84
2022-12-04T14:00:08.263Z,3.84
2022-12-04T14:02:52.875Z,3.84
2022-12-04T14:05:31.105Z,3.90
2022-12-04T14:08:07.932Z,3.81
2022-12-04T14:10:40.265Z,3.81
2022-12-04T14:13:22.406Z,3.81
2022-12-04T14:16:03.669Z,3.82
2022-12-04T14:18:33.880Z,3.77
2022-12-04T14:21:06.514Z,3.78
2022-12-04T14:23:40.136Z,3.75
2022-12-04T14:26:37.330Z,3.70
2022-12-04T14:29:39.097Z,3.66
2022-12-04T14:32:17.906Z,3.61
2022-12-04T14:34:48.691Z,3.57
2022-12-04T14:37:27.900Z,3.55
2022-12-04T14:39:59.257Z,3.53
2022-12-04T14:42:34.621Z,3.52
2022-12-04T14:45:07.713Z,3.52
2022-12-04T14:47:47.912Z,3.51
2022-12-04T14:50:35.368Z,3.52
2022-12-04T14:53:17.788Z,3.49
2022-12-04T14:56:07.059Z,3.51
2022-12-04T14:58:39.818Z,3.51
2022-12-04T15:01:28.325Z,3.47
2022-12-04T15:04:00.408Z,3.46
2022-12-04T15:06:32.754Z,3.45
2022-12-04T15:09:16.812Z,3.44
2022-12-04T15:12:09.376Z,3.46
2022-12-04T15:14:43.260Z,3.45
2022-12-04T15:17:13.223Z,3.45
2022-12-04T15:19:42.384Z,3.45
2022-12-04T15:22:24.913Z,3.45
2022-12-04T15:24:55.099Z,3.48
2022-12-04T15:27:32.385Z,3.50
2022-12-04T15:30:04.445Z,3.51
2022-12-04T15:32:34.546Z,3.52
2022-12-04T15:35:09.029Z,3.52
2022-12-04T15:37:39.218Z,3.51
2022-12-04T15:40:11.872Z,3.52
2022-12-04T15:42:40.135Z,3.52
2022-12-04T15:45:29.806Z,3.53
2022-12-04T15:47:58.717Z,3.48
2022-12-04T15:50:31.162Z,3.45
2022-12-04T15:53:09.444Z,3.44
2022-12-04T15:55:47.938Z,3.46
2022-12-04T15:58:23.321Z,3.47
2022-12-04T16:00:57.948Z,3.46
2022-12-04T16:03:31.909Z,3.46
2022-12-04T16:06:15.429Z,3.44
2022-12-04T16:08:48.204Z,3.46
2022-12-04T16:11:33.793Z,3.49
2022-12-04T16:14:16.353Z,3.49
2022-12-04T16:16:47.027Z,3.48
2022-12-04T16:19:32.834Z,3.51
2022-12-04T16:22:01.792Z,3.53
2022-12-04T16:24:31.778Z,3.54
2022-12-04T16:27:02.061Z,3.53
2022-12-04T16:29:31.509Z,3.48
2022-12-04T16:32:03.257Z,3.41
2022-12-04T16:34:32.278Z,3.28
2022-12-04T16:37:01.971Z,3.00
2022-12-04T16:39:32.004Z,2.85
2022-12-04T16:42:02.358Z,2.88
2022-12-04T16:44:30.945Z,2.87
2022-12-04T16:46:59.298Z,2.81
2022-12-04T16:49:27.915Z,2.86
2022-12-04T16:51:56.222Z,2.82
2022-12-04T16:54:24.821Z,2.83
2022-12-04T16:56:54.689Z,2.89
2022-12-04T16:59:24.347Z,2.97
2022-12-04T17:01:54.539Z,2.96
2022-12-04T17:04:23.173Z,2.95
2022-12-04T17:06:51.565Z,2.99
2022-12-04T17:09:20.073Z,3.03
2022-12-04T17:11:48.476Z,3.07
2022-12-04T17:14:18.190Z,3.07
2022-12-04T17:16:47.343Z,3.11
2022-12-04T17:19:16.122Z,3.16
2022-12-04T17:21:45.473Z,3.17
2022-12-04T17:24:13.826Z,3.18
2022-12-04T17:26:42.144Z,3.19
2022-12-04T17:29:10.453Z,3.17
2022-12-04T17:31:40.206Z,3.20
2022-12-04T17:34:08.587Z,3.24
2022-12-04T17:36:36.918Z,3.27
2022-12-04T17:39:07.311Z,3.24
2022-12-04T17:41:35.992Z,3.23
2022-12-04T17:44:04.615Z,3.18
2022-12-04T17:46:33.248Z,3.18
2022-12-04T17:49:07.130Z,3.17
2022-12-04T17:51:36.177Z,3.11
2022-12-04T17:54:06.435Z,3.03
2022-12-04T17:56:35.408Z,2.91
2022-12-04T17:59:04.627Z,2.83
2022-12-04T18:01:33.569Z,2.79
2022-12-04T18:04:07.195Z,2.73
2022-12-04T18:06:38.775Z,2.71
2022-12-04T18:09:09.254Z,2.61
2022-12-04T18:11:42.334Z,2.65
2022-12-04T18:14:13.654Z,2.66
2022-12-04T18:16:44.938Z,2.64
2022-12-04T18:19:16.099Z,2.63
2022-12-04T18:21:44.757Z,2.69
2022-12-04T18:24:14.041Z,2.63
2022-12-04T18:26:45.350Z,2.72
2022-12-04T18:29:17.706Z,2.69
2022-12-04T18:31:47.081Z,2.70
2022-12-04T18:34:16.834Z,2.62
2022-12-04T18:36:46.288Z,2.51
2022-12-04T18:39:17.539Z,2.44
2022-12-04T18:41:46.188Z,2.45
2022-12-04T18:44:15.718Z,2.41
2022-12-04T18:46:44.268Z,2.36
2022-12-04T18:49:13.139Z,2.36
2022-12-04T18:51:49.148Z,2.33
2022-12-04T18:54:21.290Z,2.35
2022-12-04T18:56:50.619Z,2.45
2022-12-04T18:59:22.038Z,2.35
2022-12-04T19:01:51.099Z,2.33
2022-12-04T19:04:23.158Z,2.29
2022-12-04T19:06:55.934Z,2.42
2022-12-04T19:10:02.140Z,2.41
2022-12-04T19:12:16.597Z,2.33
2022-12-04T19:14:44.912Z,2.35
2022-12-04T19:17:13.237Z,2.32
2022-12-04T19:19:41.580Z,2.34
2022-12-04T19:22:11.536Z,2.23
2022-12-04T19:24:40.213Z,2.28
2022-12-04T19:27:11.674Z,2.32
2022-12-04T19:29:41.444Z,2.35
2022-12-04T19:32:12.075Z,2.35
2022-12-04T19:34:41.206Z,2.37
2022-12-04T19:37:10.939Z,2.32
2022-12-04T19:39:39.595Z,2.31
2022-12-04T19:42:08.566Z,2.17
2022-12-04T19:44:48.405Z,2.11
2022-12-04T19:47:17.999Z,2.06
2022-12-04T19:49:46.672Z,2.05
2022-12-04T19:52:17.110Z,2.05
2022-12-04T19:54:45.957Z,1.99
2022-12-04T19:57:14.771Z,1.96
2022-12-04T19:59:46.492Z,1.92
2022-12-04T20:02:16.319Z,1.91
2022-12-04T20:04:45.219Z,1.94
2022-12-04T20:07:15.215Z,1.97
2022-12-04T20:09:48.786Z,1.95
2022-12-04T20:12:20.247Z,1.97
2022-12-04T20:14:48.653Z,1.95
2022-12-04T20:17:16.946Z,1.98
2022-12-04T20:19:45.286Z,1.95
2022-12-04T20:22:14.937Z,1.85
2022-12-04T20:24:43.882Z,1.78
2022-12-04T20:27:12.176Z,1.76
2022-12-04T20:29:40.491Z,1.73
2022-12-04T20:32:08.763Z,1.72
2022-12-04T20:34:43.098Z,1.71
2022-12-04T20:37:12.293Z,1.67
2022-12-04T20:39:42.208Z,1.75
2022-12-04T20:42:10.534Z,1.73
2022-12-04T20:44:38.801Z,1.64
2022-12-04T20:47:07.129Z,1.72
2022-12-04T20:49:35.556Z,1.64
2022-12-04T20:52:04.755Z,1.68
2022-12-04T20:54:39.405Z,1.70
2022-12-04T20:57:10.905Z,1.70
2022-12-04T20:59:39.469Z,1.71
2022-12-04T21:02:07.932Z,1.72
2022-12-04T21:04:38.874Z,1.77
2022-12-04T21:07:08.161Z,1.72
2022-12-04T21:09:36.755Z,1.75
2022-12-04T21:12:27.302Z,1.76
2022-12-04T21:15:14.920Z,1.80
2022-12-04T21:17:43.526Z,1.84
2022-12-04T21:20:12.965Z,1.82
2022-12-04T21:22:41.677Z,1.86
2022-12-04T21:25:10.502Z,1.83
2022-12-04T21:27:38.833Z,1.76
2022-12-04T21:30:10.699Z,1.77
2022-12-04T21:32:39.255Z,1.80
2022-12-04T21:35:08.427Z,1.71
2022-12-04T21:37:37.168Z,1.74
2022-12-04T21:40:06.742Z,1.81
2022-12-04T21:42:35.469Z,1.78
2022-12-04T21:45:08.859Z,1.78
2022-12-04T21:47:37.939Z,1.77
2022-12-04T21:50:08.341Z,1.75
2022-12-04T21:52:36.842Z,1.78
2022-12-04T21:55:06.143Z,1.77
2022-12-04T21:57:34.817Z,1.70
2022-12-04T22:00:04.052Z,1.62
2022-12-04T22:02:36.359Z,1.62
2022-12-04T22:05:05.292Z,1.63
2022-12-04T22:07:33.883Z,1.59
2022-12-04T22:10:08.624Z,1.57
2022-12-04T22:12:49.566Z,1.56
2022-12-04T22:15:18.908Z,1.55
2022-12-04T22:17:48.620Z,1.57
2022-12-04T22:20:17.599Z,1.53
2022-12-04T22:22:46.233Z,1.55
2022-12-04T22:25:15.221Z,1.51
2022-12-04T22:27:43.591Z,1.61
2022-12-04T22:30:14.404Z,1.56
2022-12-04T22:32:43.008Z,1.57
2022-12-04T22:35:13.018Z,1.48
2022-12-04T22:37:44.478Z,1.46
2022-12-04T22:40:14.717Z,1.52
2022-12-04T22:42:43.087Z,1.59
2022-12-04T22:45:12.441Z,1.43
2022-12-04T22:47:41.373Z,1.46
2022-12-04T22:50:13.068Z,1.52
2022-12-04T22:52:41.386Z,1.60
2022-12-04T22:55:10.264Z,1.62
2022-12-04T22:57:38.914Z,1.67
2022-12-04T23:00:10.048Z,1.64
2022-12-04T23:02:38.481Z,1.55
2022-12-04T23:05:07.024Z,1.53
2022-12-04T23:07:37.445Z,1.52
2022-12-04T23:10:07.859Z,1.51
2022-12-04T23:12:36.202Z,1.45
2022-12-04T23:15:04.828Z,1.36
2022-12-04T23:17:33.196Z,1.40
2022-12-04T23:20:01.905Z,1.38
2022-12-04T23:22:30.525Z,1.45
2022-12-04T23:25:00.418Z,1.42
2022-12-04T23:27:29.118Z,1.38
2022-12-04T23:29:57.412Z,1.34
2022-12-04T23:32:26.144Z,1.33
2022-12-04T23:34:54.757Z,1.32
2022-12-04T23:37:23.081Z,1.34
2022-12-04T23:39:51.695Z,1.41
2022-12-04T23:42:21.397Z,1.45
2022-12-04T23:44:50.025Z,1.40
2022-12-04T23:47:18.445Z,1.31
2022-12-04T23:49:47.210Z,1.31
2022-12-04T23:52:15.776Z,1.38
2022-12-04T23:54:44.223Z,1.31
2022-12-04T23:57:12.572Z,1.39
2022-12-04T23:59:42.369Z,1.34
